createdAt,value
2019-05-07T00:02:53.555Z,58.40
2019-05-07T00:05:57.886Z,58.80
2019-05-07T00:09:03.186Z,58.50
2019-05-07T00:12:26.724Z,58.50
2019-05-07T00:15:32.754Z,58.20
2019-05-07T00:18:37.281Z,58.60
2019-05-07T00:21:42.295Z,58.50
2019-05-07T00:24:46.887Z,58.60
2019-05-07T00:27:52.305Z,58.60
2019-05-07T00:30:56.988Z,58.60
2019-05-07T00:34:22.079Z,58.60
2019-05-07T00:37:33.077Z,58.30
2019-05-07T00:40:54.664Z,58.50
2019-05-07T00:43:59.443Z,58.60
2019-05-07T00:47:03.800Z,58.70
2019-05-07T00:50:13.669Z,58.70
2019-05-07T00:53:18.062Z,58.80
2019-05-07T00:56:22.473Z,58.80
2019-05-07T00:59:26.997Z,58.80
2019-05-07T01:02:32.348Z,58.80
2019-05-07T01:05:36.877Z,59.00
2019-05-07T01:08:42.993Z,58.90
2019-05-07T01:11:47.176Z,59.00
2019-05-07T01:14:52.789Z,59.00
2019-05-07T01:17:57.361Z,58.90
2019-05-07T01:21:02.378Z,58.80
2019-05-07T01:24:06.815Z,58.90
2019-05-07T01:27:32.151Z,58.90
2019-05-07T01:30:36.264Z,58.60
2019-05-07T01:33:46.743Z,59.00
2019-05-07T01:36:52.336Z,59.10
2019-05-07T01:39:56.836Z,59.00
2019-05-07T01:43:02.573Z,59.00
2019-05-07T01:46:06.994Z,58.90
2019-05-07T01:49:12.505Z,59.00
2019-05-07T01:52:17.067Z,59.00
2019-05-07T01:55:22.544Z,59.00
2019-05-07T01:58:27.114Z,59.00
2019-05-07T02:01:35.478Z,58.90
2019-05-07T02:04:43.436Z,59.00
2019-05-07T02:07:53.219Z,59.00
2019-05-07T02:11:02.852Z,59.00
2019-05-07T02:14:07.103Z,59.10
2019-05-07T02:17:13.451Z,59.10
2019-05-07T02:20:17.557Z,59.20
2019-05-07T02:23:22.151Z,59.30
2019-05-07T02:26:26.792Z,59.40
2019-05-07T02:29:32.417Z,59.40
2019-05-07T02:32:36.878Z,59.40
2019-05-07T02:35:43.956Z,59.40
2019-05-07T02:38:59.522Z,59.40
2019-05-07T02:42:04.118Z,59.40
2019-05-07T02:45:33.897Z,59.50
2019-05-07T02:48:44.505Z,59.50
2019-05-07T02:52:04.129Z,59.50
2019-05-07T02:55:18.417Z,59.60
2019-05-07T02:58:24.073Z,59.70
2019-05-07T03:01:28.576Z,59.70
2019-05-07T03:04:33.480Z,59.80
2019-05-07T03:07:37.869Z,60.00
2019-05-07T03:10:43.472Z,59.90
2019-05-07T03:13:48.120Z,60.00
2019-05-07T03:16:53.591Z,60.00
2019-05-07T03:20:02.929Z,60.10
2019-05-07T03:23:07.358Z,60.20
2019-05-07T03:26:23.769Z,60.40
2019-05-07T03:29:28.335Z,60.70
2019-05-07T03:32:39.952Z,60.80
2019-05-07T03:35:55.622Z,60.90
2019-05-07T03:38:55.821Z,61.00
2019-05-07T03:42:03.118Z,61.00
2019-05-07T03:45:15.717Z,61.10
2019-05-07T03:48:23.758Z,61.30
2019-05-07T03:51:28.599Z,61.30
2019-05-07T03:54:33.943Z,61.30
2019-05-07T03:57:39.240Z,61.30
2019-05-07T04:00:44.503Z,60.90
2019-05-07T04:03:49.014Z,61.40
2019-05-07T04:06:53.889Z,61.20
2019-05-07T04:09:58.307Z,61.20
2019-05-07T04:13:04.523Z,61.20
2019-05-07T04:16:08.685Z,61.30
2019-05-07T04:19:13.401Z,61.10
2019-05-07T04:22:19.281Z,61.00
2019-05-07T04:25:34.626Z,60.80
2019-05-07T04:29:05.584Z,60.70
2019-05-07T04:32:14.102Z,60.60
2019-05-07T04:35:33.179Z,60.60
2019-05-07T04:38:37.779Z,60.50
2019-05-07T04:41:43.395Z,59.90
2019-05-07T04:44:48.082Z,60.70
2019-05-07T04:47:53.854Z,60.60
2019-05-07T04:51:03.363Z,60.60
2019-05-07T04:54:06.182Z,60.70
2019-05-07T04:57:25.651Z,60.60
2019-05-07T05:00:30.022Z,60.60
2019-05-07T05:03:38.639Z,60.70
2019-05-07T05:06:42.436Z,60.60
2019-05-07T05:09:46.397Z,60.70
2019-05-07T05:12:53.397Z,60.70
2019-05-07T05:15:56.739Z,60.70
2019-05-07T05:19:02.509Z,60.70
2019-05-07T05:22:24.865Z,60.60
2019-05-07T05:25:32.390Z,60.50
2019-05-07T05:28:36.754Z,60.60
2019-05-07T05:31:42.169Z,60.50
2019-05-07T05:34:46.677Z,60.50
2019-05-07T05:37:52.056Z,60.60
2019-05-07T05:40:56.616Z,60.50
2019-05-07T05:44:07.539Z,60.60
2019-05-07T05:47:12.062Z,60.70
2019-05-07T05:50:16.503Z,60.70
2019-05-07T05:53:32.537Z,61.20
2019-05-07T05:56:42.865Z,60.50
2019-05-07T06:00:04.987Z,60.60
2019-05-07T06:03:27.299Z,60.60
2019-05-07T06:07:07.678Z,60.60
2019-05-07T06:10:15.299Z,60.70
2019-05-07T06:13:25.447Z,60.60
2019-05-07T06:16:36.651Z,60.70
2019-05-07T06:19:44.885Z,60.60
2019-05-07T06:23:08.383Z,60.70
2019-05-07T06:26:13.028Z,60.50
2019-05-07T06:29:19.937Z,60.60
2019-05-07T06:32:23.293Z,60.80
2019-05-07T06:35:27.623Z,60.90
2019-05-07T06:38:36.471Z,61.20
2019-05-07T06:41:58.511Z,61.50
2019-05-07T06:45:17.462Z,61.60
2019-05-07T06:48:37.827Z,61.90
2019-05-07T06:51:28.490Z,62.10
2019-05-07T06:54:32.815Z,61.80
2019-05-07T06:57:37.570Z,61.20
2019-05-07T07:00:54.162Z,60.90
2019-05-07T07:04:10.036Z,60.80
2019-05-07T07:07:37.067Z,60.60
2019-05-07T07:10:58.457Z,60.90
2019-05-07T07:14:03.504Z,61.00
2019-05-07T07:17:07.816Z,61.70
2019-05-07T07:20:13.103Z,63.00
2019-05-07T07:23:36.505Z,62.90
2019-05-07T07:26:42.184Z,62.30
2019-05-07T07:29:53.439Z,61.90
2019-05-07T07:32:59.623Z,61.00
2019-05-07T07:36:03.909Z,60.10
2019-05-07T07:39:09.403Z,59.50
2019-05-07T07:42:13.723Z,58.90
2019-05-07T07:45:18.863Z,58.30
2019-05-07T07:48:24.918Z,58.30
2019-05-07T07:51:40.671Z,59.80
2019-05-07T07:54:35.568Z,62.20
2019-05-07T07:57:48.650Z,62.00
2019-05-07T08:01:12.287Z,59.90
2019-05-07T08:04:17.155Z,59.60
2019-05-07T08:07:22.857Z,61.00
2019-05-07T08:10:27.671Z,60.50
2019-05-07T08:13:32.604Z,59.90
2019-05-07T08:16:37.314Z,59.20
2019-05-07T08:19:42.874Z,57.60
2019-05-07T08:22:47.506Z,56.30
2019-05-07T08:25:52.691Z,56.60
2019-05-07T08:28:58.220Z,55.90
2019-05-07T08:32:22.205Z,54.70
2019-05-07T08:35:32.904Z,53.80
2019-05-07T08:38:53.624Z,53.50
2019-05-07T08:41:58.355Z,53.60
2019-05-07T08:45:22.764Z,54.20
2019-05-07T08:48:32.095Z,54.40
2019-05-07T08:51:36.372Z,54.10
2019-05-07T08:54:42.681Z,53.80
2019-05-07T08:57:47.209Z,53.70
2019-05-07T09:00:52.290Z,53.90
2019-05-07T09:03:56.738Z,53.90
2019-05-07T09:07:02.698Z,54.30
2019-05-07T09:10:07.211Z,55.70
2019-05-07T09:13:12.575Z,55.90
2019-05-07T09:16:17.275Z,56.60
2019-05-07T09:19:21.750Z,57.30
2019-05-07T09:22:26.497Z,57.90
2019-05-07T09:25:32.528Z,57.80
2019-05-07T09:28:56.614Z,57.60
2019-05-07T09:32:18.861Z,57.30
2019-05-07T09:35:48.022Z,56.90
2019-05-07T09:38:59.193Z,56.50
2019-05-07T09:42:02.052Z,56.60
2019-05-07T09:45:06.264Z,56.70
2019-05-07T09:48:11.939Z,56.60
2019-05-07T09:51:16.418Z,56.30
2019-05-07T09:54:20.705Z,56.10
2019-05-07T09:57:31.183Z,56.80
2019-05-07T10:00:32.182Z,57.00
2019-05-07T10:03:37.041Z,56.80
2019-05-07T10:06:42.466Z,56.40
2019-05-07T10:09:48.229Z,56.00
2019-05-07T10:13:24.063Z,55.70
2019-05-07T10:16:53.690Z,55.70
2019-05-07T10:19:58.546Z,55.70
2019-05-07T10:23:03.544Z,56.20
2019-05-07T10:26:09.534Z,56.70
2019-05-07T10:29:14.240Z,57.60
2019-05-07T10:32:18.581Z,59.60
2019-05-07T10:35:23.168Z,59.70
2019-05-07T10:38:28.852Z,58.60
2019-05-07T10:41:33.181Z,56.70
2019-05-07T10:44:52.461Z,56.90
2019-05-07T10:48:19.214Z,57.90
2019-05-07T10:51:24.889Z,59.30
2019-05-07T10:54:29.196Z,60.30
2019-05-07T10:57:33.556Z,59.90
2019-05-07T11:00:38.092Z,58.00
2019-05-07T11:03:45.527Z,57.10
2019-05-07T11:06:49.845Z,55.90
2019-05-07T11:09:54.974Z,54.70
2019-05-07T11:12:59.306Z,54.20
2019-05-07T11:16:08.168Z,55.30
2019-05-07T11:19:12.922Z,55.70
2019-05-07T11:22:17.692Z,54.80
2019-05-07T11:25:22.566Z,54.10
2019-05-07T11:28:28.637Z,53.10
2019-05-07T11:31:33.704Z,52.60
2019-05-07T11:34:42.127Z,54.00
2019-05-07T11:37:46.500Z,55.10
2019-05-07T11:40:51.801Z,54.00
2019-05-07T11:44:23.034Z,54.60
2019-05-07T11:47:31.943Z,53.40
2019-05-07T11:50:45.424Z,52.00
2019-05-07T11:54:12.334Z,51.60
2019-05-07T11:57:16.044Z,50.60
2019-05-07T12:00:42.720Z,49.70
2019-05-07T12:03:47.080Z,49.30
2019-05-07T12:06:52.125Z,49.30
2019-05-07T12:09:56.481Z,49.30
2019-05-07T12:13:02.376Z,50.00
2019-05-07T12:16:06.981Z,50.00
2019-05-07T12:19:16.588Z,50.50
2019-05-07T12:22:38.837Z,50.50
2019-05-07T12:25:43.071Z,51.20
2019-05-07T12:28:47.412Z,51.40
2019-05-07T12:32:22.099Z,51.70
2019-05-07T12:35:26.548Z,52.10
2019-05-07T12:38:32.382Z,52.60
2019-05-07T12:41:36.833Z,52.90
2019-05-07T12:44:42.490Z,53.40
2019-05-07T12:47:46.948Z,53.50
2019-05-07T12:50:52.328Z,53.50
2019-05-07T12:54:02.919Z,53.60
2019-05-07T12:57:07.751Z,53.90
2019-05-07T13:00:32.293Z,54.10
2019-05-07T13:03:44.356Z,53.70
2019-05-07T13:06:55.617Z,53.80
2019-05-07T13:09:59.993Z,53.60
2019-05-07T13:13:04.336Z,53.40
2019-05-07T13:16:13.659Z,53.00
2019-05-07T13:19:18.756Z,53.00
2019-05-07T13:22:23.085Z,53.00
2019-05-07T13:25:28.315Z,52.80
2019-05-07T13:28:32.969Z,53.10
2019-05-07T13:31:38.069Z,53.20
2019-05-07T13:34:43.096Z,53.40
2019-05-07T13:37:56.479Z,53.60
2019-05-07T13:41:20.327Z,54.30
2019-05-07T13:44:52.041Z,54.00
2019-05-07T13:48:03.077Z,53.90
2019-05-07T13:51:18.940Z,53.80
2019-05-07T13:54:23.865Z,51.30
2019-05-07T13:57:28.302Z,51.20
2019-05-07T14:00:37.714Z,52.20
2019-05-07T14:03:42.051Z,52.70
2019-05-07T14:06:46.797Z,52.40
2019-05-07T14:09:52.679Z,52.10
2019-05-07T14:13:07.632Z,53.10
2019-05-07T14:16:07.973Z,52.60
2019-05-07T14:19:13.107Z,53.00
2019-05-07T14:22:19.339Z,53.10
2019-05-07T14:25:24.710Z,53.00
2019-05-07T14:28:29.348Z,53.00
2019-05-07T14:31:33.814Z,53.10
2019-05-07T14:34:56.449Z,52.90
2019-05-07T14:38:13.652Z,52.70
2019-05-07T14:41:16.343Z,52.80
2019-05-07T14:44:22.289Z,52.80
2019-05-07T14:47:26.721Z,53.00
2019-05-07T14:50:32.846Z,51.30
2019-05-07T14:53:37.595Z,51.80
2019-05-07T14:56:42.821Z,51.30
2019-05-07T14:59:47.331Z,51.90
2019-05-07T15:02:52.474Z,52.00
2019-05-07T15:05:56.915Z,51.70
2019-05-07T15:09:01.240Z,51.20
2019-05-07T15:12:05.642Z,49.20
2019-05-07T15:15:12.630Z,50.50
2019-05-07T15:18:43.135Z,51.40
2019-05-07T15:21:48.376Z,51.60
2019-05-07T15:24:52.796Z,51.30
2019-05-07T15:28:16.944Z,51.50
2019-05-07T15:31:25.726Z,50.80
2019-05-07T15:34:30.106Z,51.20
2019-05-07T15:37:34.376Z,51.10
2019-05-07T15:40:38.818Z,51.10
2019-05-07T15:43:46.012Z,51.10
2019-05-07T15:46:51.900Z,51.00
2019-05-07T15:49:56.119Z,50.70
2019-05-07T15:53:19.432Z,50.70
2019-05-07T15:56:23.838Z,50.90
2019-05-07T15:59:28.205Z,51.20
2019-05-07T16:02:35.504Z,51.40
2019-05-07T16:05:39.871Z,51.40
2019-05-07T16:08:49.209Z,51.30
2019-05-07T16:11:53.743Z,51.10
2019-05-07T16:14:58.104Z,50.90
2019-05-07T16:18:06.224Z,51.40
2019-05-07T16:21:12.053Z,50.80
2019-05-07T16:24:16.993Z,50.70
2019-05-07T16:27:22.457Z,50.80
2019-05-07T16:30:45.939Z,50.80
2019-05-07T16:33:52.043Z,50.60
2019-05-07T16:36:56.519Z,51.10
2019-05-07T16:40:01.620Z,51.30
2019-05-07T16:43:06.936Z,51.30
2019-05-07T16:46:11.882Z,51.30
2019-05-07T16:49:17.533Z,51.30
2019-05-07T16:52:22.467Z,51.40
2019-05-07T16:55:36.801Z,51.30
2019-05-07T16:58:44.709Z,51.20
2019-05-07T17:01:49.066Z,51.40
2019-05-07T17:05:06.053Z,51.50
2019-05-07T17:08:28.205Z,52.10
2019-05-07T17:11:32.510Z,51.70
2019-05-07T17:14:36.836Z,51.80
2019-05-07T17:17:42.786Z,51.80
2019-05-07T17:20:47.368Z,51.70
2019-05-07T17:23:52.003Z,51.80
2019-05-07T17:26:56.710Z,51.90
2019-05-07T17:30:02.900Z,52.00
2019-05-07T17:33:08.282Z,52.00
2019-05-07T17:36:12.649Z,52.10
2019-05-07T17:39:19.455Z,52.20
2019-05-07T17:42:25.530Z,52.00
2019-05-07T17:45:32.212Z,52.40
2019-05-07T17:48:35.942Z,52.40
2019-05-07T17:51:46.407Z,52.10
2019-05-07T17:54:52.709Z,52.10
2019-05-07T17:57:56.808Z,52.10
2019-05-07T18:01:02.787Z,52.10
2019-05-07T18:04:07.308Z,52.20
2019-05-07T18:07:13.927Z,52.20
2019-05-07T18:10:18.313Z,52.30
2019-05-07T18:13:22.611Z,52.40
2019-05-07T18:16:38.020Z,52.10
2019-05-07T18:19:42.878Z,52.20
2019-05-07T18:22:47.237Z,52.60
2019-05-07T18:25:55.584Z,52.50
2019-05-07T18:29:02.477Z,52.50
2019-05-07T18:32:07.547Z,52.60
2019-05-07T18:35:12.623Z,52.70
2019-05-07T18:38:18.284Z,52.70
2019-05-07T18:41:23.094Z,52.40
2019-05-07T18:44:27.474Z,52.90
2019-05-07T18:47:33.096Z,53.10
2019-05-07T18:50:37.627Z,53.80
2019-05-07T18:53:42.516Z,53.30
2019-05-07T18:56:47.168Z,53.40
2019-05-07T18:59:53.165Z,53.50
2019-05-07T19:02:57.736Z,53.60
2019-05-07T19:06:02.882Z,53.70
2019-05-07T19:09:11.541Z,53.90
2019-05-07T19:12:17.393Z,53.90
2019-05-07T19:15:22.062Z,53.90
2019-05-07T19:18:26.481Z,54.00
2019-05-07T19:21:31.952Z,54.10
2019-05-07T19:24:45.205Z,54.20
2019-05-07T19:27:44.112Z,54.30
2019-05-07T19:30:48.459Z,54.30
2019-05-07T19:33:52.849Z,54.50
2019-05-07T19:37:02.421Z,54.50
2019-05-07T19:40:06.816Z,54.70
2019-05-07T19:43:11.205Z,54.70
2019-05-07T19:46:18.311Z,54.80
2019-05-07T19:49:22.758Z,54.50
2019-05-07T19:52:27.174Z,54.90
2019-05-07T19:55:52.184Z,54.90
2019-05-07T19:58:56.537Z,54.80
2019-05-07T20:02:02.570Z,54.80
2019-05-07T20:05:07.007Z,55.00
2019-05-07T20:08:12.020Z,55.00
2019-05-07T20:11:25.181Z,55.00
2019-05-07T20:14:30.014Z,55.00
2019-05-07T20:17:34.348Z,55.10
2019-05-07T20:20:38.640Z,55.20
2019-05-07T20:23:43.368Z,55.20
2019-05-07T20:26:47.794Z,55.30
2019-05-07T20:29:52.326Z,55.30
2019-05-07T20:32:56.757Z,55.50
2019-05-07T20:36:02.630Z,55.50
2019-05-07T20:39:08.355Z,55.50
2019-05-07T20:42:12.739Z,56.20
2019-05-07T20:45:18.526Z,55.70
2019-05-07T20:48:22.841Z,55.80
2019-05-07T20:51:27.162Z,55.80
2019-05-07T20:54:41.893Z,56.00
2019-05-07T20:57:46.102Z,56.10
2019-05-07T21:00:52.487Z,56.10
2019-05-07T21:03:56.533Z,56.20
2019-05-07T21:07:02.127Z,56.20
2019-05-07T21:10:06.626Z,56.20
2019-05-07T21:13:26.393Z,56.20
2019-05-07T21:16:17.080Z,56.20
2019-05-07T21:19:22.345Z,56.40
2019-05-07T21:22:26.931Z,56.30
2019-05-07T21:25:42.348Z,56.30
2019-05-07T21:28:37.286Z,56.40
2019-05-07T21:31:43.096Z,56.60
2019-05-07T21:34:50.096Z,56.50
2019-05-07T21:37:54.396Z,56.70
2019-05-07T21:40:58.613Z,56.60
2019-05-07T21:44:02.904Z,56.70
2019-05-07T21:47:07.316Z,56.70
2019-05-07T21:50:12.518Z,56.80
2019-05-07T21:53:28.196Z,56.70
2019-05-07T21:56:45.801Z,56.60
2019-05-07T21:59:52.155Z,56.50
2019-05-07T22:02:59.295Z,56.90
2019-05-07T22:06:03.837Z,56.90
2019-05-07T22:09:09.925Z,57.00
2019-05-07T22:12:14.295Z,57.00
2019-05-07T22:15:18.649Z,57.10
2019-05-07T22:18:23.035Z,57.10
2019-05-07T22:21:27.354Z,57.10
2019-05-07T22:24:32.898Z,57.20
2019-05-07T22:27:37.449Z,57.20
2019-05-07T22:31:18.800Z,57.30
2019-05-07T22:34:42.346Z,57.40
2019-05-07T22:37:46.726Z,57.40
2019-05-07T22:40:51.015Z,57.50
2019-05-07T22:43:55.302Z,57.40
2019-05-07T22:47:06.856Z,57.40
2019-05-07T22:50:11.990Z,57.30
2019-05-07T22:53:16.466Z,57.30
2019-05-07T22:56:34.287Z,57.40
2019-05-07T22:59:28.631Z,57.30
2019-05-07T23:02:34.407Z,57.30
2019-05-07T23:05:38.737Z,57.30
2019-05-07T23:08:43.103Z,57.30
2019-05-07T23:11:47.489Z,57.30
2019-05-07T23:14:53.616Z,57.40
2019-05-07T23:17:57.904Z,57.40
2019-05-07T23:21:02.351Z,58.00
2019-05-07T23:24:06.716Z,57.30
2019-05-07T23:27:14.848Z,57.30
2019-05-07T23:30:18.877Z,57.30
2019-05-07T23:33:23.157Z,57.30
2019-05-07T23:36:27.461Z,57.20
2019-05-07T23:39:33.723Z,57.30
2019-05-07T23:42:39.480Z,57.30
2019-05-07T23:45:43.788Z,57.30
2019-05-07T23:48:48.158Z,57.40
2019-05-07T23:51:53.110Z,57.50
2019-05-07T23:54:57.662Z,57.70
2019-05-07T23:58:03.128Z,57.70
